createdAt,value
2018-09-26T00:02:45.352Z,8.60
2018-09-26T00:07:48.916Z,6.80
2018-09-26T00:12:52.676Z,9.30
2018-09-26T00:17:56.379Z,7.33
2018-09-26T00:23:00.442Z,9.30
2018-09-26T00:28:03.983Z,8.57
2018-09-26T00:33:07.484Z,2.77
2018-09-26T00:38:11.146Z,9.43
2018-09-26T00:43:14.549Z,10.20
2018-09-26T00:48:18.213Z,3.63
2018-09-26T00:53:21.848Z,9.23
2018-09-26T00:58:25.532Z,13.27
2018-09-26T01:03:29.226Z,16.53
2018-09-26T01:08:33.228Z,6.30
2018-09-26T01:13:36.669Z,9.03
2018-09-26T01:18:40.447Z,11.27
2018-09-26T01:23:43.965Z,18.73
2018-09-26T01:28:47.797Z,4.83
2018-09-26T01:33:51.372Z,9.97
2018-09-26T01:38:55.247Z,13.30
2018-09-26T01:43:59.123Z,9.30
2018-09-26T01:49:03.011Z,21.13
2018-09-26T01:54:07.520Z,20.50
2018-09-26T01:59:11.231Z,9.67
2018-09-26T02:04:14.904Z,12.97
2018-09-26T02:09:18.462Z,9.80
2018-09-26T02:14:23.413Z,7.83
2018-09-26T02:26:47.084Z,14.33
2018-09-26T02:31:50.770Z,13.43
2018-09-26T02:36:54.781Z,10.83
2018-09-26T02:41:58.447Z,12.80
2018-09-26T02:47:01.896Z,16.10
2018-09-26T02:52:05.558Z,15.43
2018-09-26T02:57:09.217Z,11.77
2018-09-26T03:02:13.013Z,11.13
2018-09-26T03:07:17.127Z,16.37
2018-09-26T03:12:20.871Z,23.13
2018-09-26T03:17:24.613Z,16.70
2018-09-26T03:22:28.204Z,16.50
2018-09-26T03:27:31.812Z,17.03
2018-09-26T03:32:35.278Z,12.60
2018-09-26T03:37:39.298Z,21.20
2018-09-26T03:42:43.603Z,22.50
2018-09-26T03:47:47.285Z,23.00
2018-09-26T03:52:51.134Z,20.67
2018-09-26T03:57:54.878Z,19.70
2018-09-26T04:02:58.326Z,29.17
2018-09-26T04:08:01.925Z,24.30
2018-09-26T04:13:05.348Z,21.70
2018-09-26T04:18:08.745Z,18.03
2018-09-26T04:23:13.297Z,24.10
2018-09-26T04:28:17.841Z,33.77
2018-09-26T04:33:21.339Z,23.13
2018-09-26T04:38:24.763Z,22.53
2018-09-26T04:43:28.417Z,19.60
2018-09-26T04:48:31.808Z,18.10
2018-09-26T04:53:35.519Z,19.13
2018-09-26T04:58:38.889Z,49.00
2018-09-26T05:03:42.261Z,54.83
2018-09-26T05:09:00.109Z,17.73
2018-09-26T05:14:04.313Z,19.83
2018-09-26T05:19:07.820Z,28.57
2018-09-26T05:24:11.811Z,20.87
2018-09-26T05:29:15.152Z,27.67
2018-09-26T05:34:19.347Z,21.83
2018-09-26T05:39:22.728Z,32.33
2018-09-26T05:44:26.155Z,20.73
2018-09-26T05:49:29.763Z,17.27
2018-09-26T05:54:33.143Z,34.73
2018-09-26T05:59:36.914Z,23.63
2018-09-26T06:04:40.346Z,37.97
2018-09-26T06:09:43.802Z,25.13
2018-09-26T06:14:47.075Z,21.83
2018-09-26T06:19:50.448Z,26.80
2018-09-26T06:24:53.876Z,21.73
2018-09-26T06:29:57.536Z,26.60
2018-09-26T06:35:00.919Z,33.80
2018-09-26T06:40:04.365Z,29.00
2018-09-26T06:45:08.148Z,24.47
2018-09-26T06:50:11.496Z,25.03
2018-09-26T06:55:15.033Z,39.90
2018-09-26T07:00:18.782Z,23.00
2018-09-26T07:05:22.246Z,24.33
2018-09-26T07:10:25.623Z,42.73
2018-09-26T07:15:28.929Z,27.27
2018-09-26T07:20:32.262Z,15.00
2018-09-26T07:25:35.745Z,25.77
2018-09-26T07:30:39.161Z,52.23
2018-09-26T07:35:42.944Z,22.30
2018-09-26T07:40:46.472Z,47.70
2018-09-26T07:45:49.797Z,21.30
2018-09-26T07:50:53.178Z,22.43
2018-09-26T07:55:56.515Z,24.67
2018-09-26T08:01:05.706Z,40.43
2018-09-26T08:06:10.418Z,38.57
2018-09-26T08:11:13.784Z,32.77
2018-09-26T08:16:17.097Z,28.33
2018-09-26T08:21:20.441Z,32.13
2018-09-26T08:26:24.003Z,30.70
2018-09-26T08:31:27.351Z,45.87
2018-09-26T08:36:31.113Z,33.80
2018-09-26T08:41:34.492Z,31.90
2018-09-26T08:46:37.771Z,31.73
2018-09-26T08:51:41.129Z,37.30
2018-09-26T08:56:44.776Z,31.00
2018-09-26T09:01:48.532Z,38.57
2018-09-26T09:06:51.855Z,40.00
2018-09-26T09:11:55.586Z,34.47
2018-09-26T09:16:58.973Z,35.27
2018-09-26T09:22:02.285Z,28.93
2018-09-26T09:27:05.710Z,43.13
2018-09-26T09:32:09.021Z,52.20
2018-09-26T09:37:12.304Z,38.87
2018-09-26T09:42:16.004Z,33.43
2018-09-26T09:47:19.331Z,28.53
2018-09-26T09:52:22.698Z,41.67
2018-09-26T09:57:26.608Z,50.70
2018-09-26T10:02:30.106Z,41.33
2018-09-26T10:07:33.396Z,59.63
2018-09-26T10:12:37.239Z,46.07
2018-09-26T10:17:40.589Z,54.40
2018-09-26T10:22:43.848Z,43.60
2018-09-26T10:27:47.344Z,53.23
2018-09-26T10:32:50.758Z,51.37
2018-09-26T10:37:54.104Z,54.07
2018-09-26T10:42:57.447Z,54.47
2018-09-26T10:48:01.126Z,59.10
2018-09-26T10:53:04.488Z,59.73
2018-09-26T10:58:08.013Z,52.00
2018-09-26T11:03:11.333Z,43.33
2018-09-26T11:08:14.657Z,54.17
2018-09-26T11:13:18.744Z,53.77
2018-09-26T11:18:22.978Z,53.17
2018-09-26T11:23:26.259Z,37.90
2018-09-26T11:28:29.605Z,67.70
2018-09-26T11:33:33.032Z,54.87
2018-09-26T11:38:36.375Z,56.97
2018-09-26T11:43:39.683Z,59.97
2018-09-26T11:48:43.351Z,64.67
2018-09-26T11:53:46.678Z,47.73
2018-09-26T11:58:50.045Z,45.23
2018-09-26T12:03:53.344Z,69.07
2018-09-26T12:08:56.636Z,89.60
2018-09-26T12:14:00.908Z,80.60
2018-09-26T12:19:06.098Z,71.37
2018-09-26T12:24:10.845Z,73.10
2018-09-26T12:29:14.846Z,82.03
2018-09-26T12:34:18.449Z,67.63
2018-09-26T12:39:21.803Z,54.77
2018-09-26T12:44:25.147Z,61.07
2018-09-26T12:49:28.395Z,65.17
2018-09-26T12:54:37.020Z,76.70
2018-09-26T12:59:41.883Z,60.33
2018-09-26T13:04:45.271Z,68.50
2018-09-26T13:09:50.766Z,75.73
2018-09-26T13:14:54.125Z,99.30
2018-09-26T13:19:57.424Z,99.77
2018-09-26T13:25:01.062Z,103.83
2018-09-26T13:30:05.440Z,93.17
2018-09-26T13:35:09.822Z,83.60
2018-09-26T13:40:13.589Z,88.67
2018-09-26T13:45:16.928Z,88.17
2018-09-26T13:50:20.284Z,99.17
2018-09-26T13:55:23.693Z,94.30
2018-09-26T14:00:27.329Z,102.23
2018-09-26T14:05:30.628Z,98.73
2018-09-26T14:10:34.066Z,97.23
2018-09-26T14:15:37.330Z,100.83
2018-09-26T14:20:40.669Z,113.23
2018-09-26T14:25:44.046Z,103.10
2018-09-26T14:30:48.435Z,84.10
2018-09-26T14:35:52.127Z,92.57
2018-09-26T14:40:57.181Z,118.40
2018-09-26T14:46:01.125Z,93.90
2018-09-26T14:51:05.056Z,93.90
2018-09-26T14:56:08.877Z,91.70
2018-09-26T15:01:17.054Z,96.37
2018-09-26T15:06:21.416Z,72.37
2018-09-26T15:11:25.214Z,0.50
2018-09-26T15:16:29.158Z,0.50
2018-09-26T15:21:32.958Z,0.60
2018-09-26T15:26:39.781Z,0.60
2018-09-26T15:31:44.546Z,0.60
2018-09-26T15:36:48.353Z,0.50
2018-09-26T15:41:52.233Z,0.50
2018-09-26T15:46:56.366Z,0.50
2018-09-26T15:52:00.180Z,0.50
2018-09-26T15:57:04.471Z,0.50
2018-09-26T16:02:08.395Z,0.50
2018-09-26T16:07:12.248Z,0.60
2018-09-26T16:12:16.184Z,0.60
2018-09-26T16:17:20.532Z,0.50
2018-09-26T16:22:24.618Z,0.60
2018-09-26T16:27:28.453Z,0.50
2018-09-26T16:32:32.452Z,0.70
2018-09-26T16:37:36.273Z,0.50
2018-09-26T16:42:40.163Z,0.60
2018-09-26T16:47:45.183Z,0.50
2018-09-26T16:52:49.294Z,0.70
2018-09-26T16:57:53.551Z,0.50
2018-09-26T17:02:57.791Z,0.50
2018-09-26T17:08:01.907Z,0.50
2018-09-26T17:13:06.173Z,0.50
2018-09-26T17:18:10.454Z,0.60
2018-09-26T17:23:15.636Z,0.53
2018-09-26T17:28:20.411Z,0.60
2018-09-26T17:33:24.652Z,0.50
2018-09-26T17:38:30.429Z,0.50
2018-09-26T17:43:34.686Z,0.50
2018-09-26T17:48:38.933Z,0.60
2018-09-26T17:53:42.884Z,0.50
2018-09-26T17:58:50.548Z,0.50
2018-09-26T18:03:58.678Z,0.60
2018-09-26T18:09:05.432Z,0.50
2018-09-26T18:14:12.132Z,0.50
2018-09-26T18:19:18.719Z,0.60
2018-09-26T18:24:23.358Z,0.50
2018-09-26T18:29:29.357Z,0.50
2018-09-26T18:34:35.313Z,0.50
2018-09-26T18:39:43.964Z,0.83
2018-09-26T18:44:48.896Z,0.50
2018-09-26T18:50:03.082Z,0.50
2018-09-26T18:55:10.199Z,0.50
2018-09-26T19:00:14.458Z,0.50
2018-09-26T19:05:19.458Z,0.50
2018-09-26T19:10:23.508Z,0.50
2018-09-26T19:15:35.755Z,0.60
2018-09-26T19:20:41.566Z,0.50
2018-09-26T19:25:46.672Z,0.50
2018-09-26T19:30:50.796Z,0.50
2018-09-26T19:35:56.248Z,0.50
2018-09-26T19:41:00.488Z,0.50
2018-09-26T19:46:04.969Z,0.50
2018-09-26T19:51:09.641Z,0.60
2018-09-26T19:56:14.167Z,0.50
2018-09-26T20:01:27.798Z,0.50
2018-09-26T20:06:34.801Z,0.60
2018-09-26T20:11:40.135Z,0.50
2018-09-26T20:16:44.252Z,0.50
2018-09-26T20:21:48.466Z,0.50
2018-09-26T20:26:52.379Z,0.50
2018-09-26T20:31:56.370Z,0.50
2018-09-26T20:37:00.638Z,0.50
2018-09-26T20:42:04.911Z,0.50
2018-09-26T20:47:10.622Z,0.50
2018-09-26T20:52:15.303Z,0.50
2018-09-26T20:57:19.687Z,0.50
2018-09-26T21:02:23.098Z,0.50
2018-09-26T21:07:26.456Z,0.60
2018-09-26T21:12:29.897Z,0.50
2018-09-26T21:17:33.860Z,0.50
2018-09-26T21:22:37.224Z,0.50
2018-09-26T21:27:40.821Z,0.50
2018-09-26T21:32:44.564Z,0.50
2018-09-26T21:37:48.430Z,0.50
2018-09-26T21:42:51.973Z,0.80
2018-09-26T21:47:55.320Z,0.50
2018-09-26T21:52:59.014Z,0.50
2018-09-26T21:58:03.873Z,0.50
2018-09-26T22:03:07.423Z,0.50
2018-09-26T22:08:11.003Z,0.50
2018-09-26T22:13:15.656Z,0.50
2018-09-26T22:18:19.910Z,0.60
2018-09-26T22:23:23.356Z,0.60
2018-09-26T22:28:26.886Z,0.50
2018-09-26T22:33:30.387Z,0.50
2018-09-26T22:38:34.869Z,0.50
2018-09-26T22:43:38.209Z,0.50
2018-09-26T22:48:41.543Z,0.50
2018-09-26T22:53:44.897Z,0.50
2018-09-26T22:58:48.463Z,0.50
2018-09-26T23:03:52.121Z,0.50
2018-09-26T23:08:55.937Z,0.50
2018-09-26T23:13:59.237Z,0.50
2018-09-26T23:19:02.667Z,0.50
2018-09-26T23:24:06.066Z,0.50
2018-09-26T23:29:09.658Z,0.50
2018-09-26T23:34:14.356Z,0.50
2018-09-26T23:39:18.609Z,0.50
2018-09-26T23:44:22.547Z,0.50
2018-09-26T23:49:26.508Z,0.77
2018-09-26T23:54:30.653Z,0.60
2018-09-26T23:59:34.237Z,0.50
